createdAt,value
2018-03-02T00:01:46.260Z,109.97
2018-03-02T00:04:13.092Z,116.40
2018-03-02T00:06:39.883Z,106.28
2018-03-02T00:09:06.628Z,100.32
2018-03-02T00:11:33.467Z,106.50
2018-03-02T00:14:01.183Z,117.05
2018-03-02T00:16:27.931Z,114.28
2018-03-02T00:18:54.777Z,116.05
2018-03-02T00:21:21.511Z,116.25
2018-03-02T00:23:48.285Z,110.90
2018-03-02T00:26:15.010Z,111.43
2018-03-02T00:28:41.733Z,115.93
2018-03-02T00:31:08.476Z,102.35
2018-03-02T00:33:35.249Z,109.90
2018-03-02T00:36:02.028Z,108.40
2018-03-02T00:38:28.838Z,105.97
2018-03-02T00:40:55.579Z,103.82
2018-03-02T00:43:22.331Z,108.93
2018-03-02T00:45:49.071Z,110.15
2018-03-02T00:48:15.860Z,95.82
2018-03-02T00:50:42.607Z,111.57
2018-03-02T00:53:09.368Z,110.07
2018-03-02T00:55:36.160Z,111.80
2018-03-02T00:58:02.889Z,106.65
2018-03-02T01:00:29.643Z,113.05
2018-03-02T01:02:56.406Z,110.88
2018-03-02T01:05:23.155Z,106.10
2018-03-02T01:07:49.896Z,96.05
2018-03-02T01:10:16.622Z,109.37
2018-03-02T01:12:43.374Z,107.57
2018-03-02T01:15:10.159Z,108.43
2018-03-02T01:17:36.878Z,116.62
2018-03-02T01:20:03.651Z,109.97
2018-03-02T01:22:30.380Z,111.43
2018-03-02T01:24:57.140Z,113.88
2018-03-02T01:27:23.886Z,103.87
2018-03-02T01:29:50.614Z,110.78
2018-03-02T01:32:17.407Z,119.40
2018-03-02T01:34:44.126Z,107.35
2018-03-02T01:37:10.887Z,111.72
2018-03-02T01:39:37.637Z,110.28
2018-03-02T01:42:04.403Z,102.97
2018-03-02T01:44:31.224Z,112.93
2018-03-02T01:46:57.952Z,111.82
2018-03-02T01:49:24.721Z,112.50
2018-03-02T01:51:51.445Z,107.12
2018-03-02T01:54:18.171Z,105.53
2018-03-02T01:56:44.965Z,105.97
2018-03-02T01:59:11.709Z,108.50
2018-03-02T02:01:38.505Z,115.28
2018-03-02T02:04:05.255Z,110.53
2018-03-02T02:06:32.010Z,116.80
2018-03-02T02:08:58.774Z,113.95
2018-03-02T02:11:25.510Z,110.10
2018-03-02T02:13:52.254Z,109.53
2018-03-02T02:16:18.992Z,111.85
2018-03-02T02:18:45.752Z,103.97
2018-03-02T02:21:12.527Z,112.95
2018-03-02T02:23:39.271Z,126.07
2018-03-02T02:26:06.016Z,105.53
2018-03-02T02:28:32.735Z,120.13
2018-03-02T02:30:59.472Z,118.72
2018-03-02T02:33:26.213Z,108.82
2018-03-02T02:35:52.933Z,118.75
2018-03-02T02:38:19.710Z,118.70
2018-03-02T02:40:46.436Z,111.03
2018-03-02T02:43:13.191Z,120.00
2018-03-02T02:45:39.946Z,124.47
2018-03-02T02:48:06.690Z,109.68
2018-03-02T02:50:33.444Z,120.07
2018-03-02T02:53:00.185Z,117.75
2018-03-02T02:55:26.920Z,126.00
2018-03-02T02:57:53.666Z,128.45
2018-03-02T03:00:20.407Z,124.65
2018-03-02T03:02:47.142Z,106.80
2018-03-02T03:05:13.890Z,117.45
2018-03-02T03:07:40.610Z,119.65
2018-03-02T03:10:07.363Z,131.32
2018-03-02T03:12:34.086Z,114.35
2018-03-02T03:15:00.850Z,118.80
2018-03-02T03:17:27.594Z,115.70
2018-03-02T03:19:54.348Z,109.72
2018-03-02T03:22:21.086Z,105.70
2018-03-02T03:24:47.829Z,132.43
2018-03-02T03:27:14.602Z,116.90
2018-03-02T03:29:41.348Z,115.47
2018-03-02T03:32:08.085Z,106.68
2018-03-02T03:34:34.845Z,119.25
2018-03-02T03:37:01.567Z,121.82
2018-03-02T03:39:28.290Z,120.35
2018-03-02T03:41:55.073Z,109.82
2018-03-02T03:44:21.803Z,119.62
2018-03-02T03:46:48.540Z,124.85
2018-03-02T03:49:15.273Z,123.82
2018-03-02T03:51:42.029Z,108.12
2018-03-02T03:54:08.786Z,116.70
2018-03-02T03:56:35.499Z,118.60
2018-03-02T03:59:02.260Z,111.32
2018-03-02T04:01:29.006Z,116.53
2018-03-02T04:03:55.742Z,114.32
2018-03-02T04:06:22.480Z,125.28
2018-03-02T04:08:49.202Z,125.22
2018-03-02T04:11:15.965Z,122.28
2018-03-02T04:13:42.707Z,116.25
2018-03-02T04:16:09.427Z,117.93
2018-03-02T04:18:36.152Z,120.75
2018-03-02T04:21:02.918Z,122.57
2018-03-02T04:23:29.641Z,125.32
2018-03-02T04:25:56.438Z,124.15
2018-03-02T04:28:23.193Z,121.30
2018-03-02T04:30:49.942Z,118.97
2018-03-02T04:33:16.707Z,125.45
2018-03-02T04:35:43.416Z,115.18
2018-03-02T04:38:10.152Z,109.53
2018-03-02T04:40:36.952Z,113.30
2018-03-02T04:43:03.789Z,119.78
2018-03-02T04:45:30.582Z,116.75
2018-03-02T04:47:57.319Z,114.25
2018-03-02T04:50:24.122Z,124.85
2018-03-02T04:52:50.862Z,121.93
2018-03-02T04:55:17.609Z,113.97
2018-03-02T04:57:44.385Z,119.13
2018-03-02T05:00:11.145Z,124.43
2018-03-02T05:02:37.907Z,117.50
2018-03-02T05:05:04.674Z,118.95
2018-03-02T05:07:31.664Z,116.30
2018-03-02T05:09:58.410Z,110.00
2018-03-02T05:12:25.150Z,106.15
2018-03-02T05:14:52.004Z,128.18
2018-03-02T05:17:18.730Z,116.50
2018-03-02T05:19:45.469Z,118.57
2018-03-02T05:22:12.277Z,119.03
2018-03-02T05:24:39.007Z,128.80
2018-03-02T05:27:05.811Z,108.78
2018-03-02T05:29:32.610Z,128.62
2018-03-02T05:31:59.334Z,129.27
2018-03-02T05:34:26.096Z,130.25
2018-03-02T05:36:52.824Z,134.45
2018-03-02T05:39:19.572Z,116.88
2018-03-02T05:41:46.325Z,139.25
2018-03-02T05:44:13.082Z,126.47
2018-03-02T05:46:39.864Z,115.32
2018-03-02T05:49:06.583Z,110.97
2018-03-02T05:51:33.977Z,117.28
2018-03-02T05:54:00.803Z,110.85
2018-03-02T05:56:27.529Z,124.80
2018-03-02T05:58:54.501Z,125.85
2018-03-02T06:01:21.223Z,124.55
2018-03-02T06:03:47.973Z,120.95
2018-03-02T06:06:14.715Z,125.18
2018-03-02T06:08:41.455Z,130.37
2018-03-02T06:11:08.196Z,129.65
2018-03-02T06:13:35.874Z,116.20
2018-03-02T06:16:03.075Z,115.37
2018-03-02T06:18:29.856Z,126.05
2018-03-02T06:20:56.891Z,117.15
2018-03-02T06:23:23.637Z,117.57
2018-03-02T06:25:50.392Z,122.80
2018-03-02T06:28:17.238Z,113.57
2018-03-02T06:30:43.974Z,108.30
2018-03-02T06:33:10.728Z,122.35
2018-03-02T06:35:37.463Z,117.85
2018-03-02T06:38:04.202Z,132.63
2018-03-02T06:40:30.960Z,126.50
2018-03-02T06:42:58.608Z,111.72
2018-03-02T06:45:25.391Z,129.85
2018-03-02T06:47:52.108Z,129.73
2018-03-02T06:50:18.840Z,127.78
2018-03-02T06:52:45.603Z,110.75
2018-03-02T06:55:12.339Z,111.88
2018-03-02T06:57:39.227Z,112.90
2018-03-02T07:00:05.976Z,129.07
2018-03-02T07:02:32.741Z,107.53
2018-03-02T07:04:59.500Z,129.77
2018-03-02T07:07:26.230Z,114.75
2018-03-02T07:09:52.944Z,111.55
2018-03-02T07:12:19.729Z,119.37
2018-03-02T07:14:46.534Z,118.47
2018-03-02T07:17:13.309Z,111.78
2018-03-02T07:19:40.023Z,116.22
2018-03-02T07:22:06.766Z,104.05
2018-03-02T07:24:33.495Z,121.18
2018-03-02T07:27:00.230Z,114.80
2018-03-02T07:29:27.017Z,120.40
2018-03-02T07:31:53.728Z,111.95
2018-03-02T07:34:20.475Z,123.78
2018-03-02T07:36:47.258Z,119.78
2018-03-02T07:39:13.957Z,129.23
2018-03-02T07:41:40.693Z,119.13
2018-03-02T07:44:07.429Z,112.90
2018-03-02T07:46:34.144Z,112.78
2018-03-02T07:49:00.884Z,110.07
2018-03-02T07:51:27.617Z,110.30
2018-03-02T07:53:54.339Z,106.60
2018-03-02T07:56:22.731Z,117.35
2018-03-02T07:58:52.303Z,116.85
2018-03-02T08:01:19.262Z,110.60
2018-03-02T08:03:46.005Z,110.03
2018-03-02T08:06:12.717Z,103.82
2018-03-02T08:08:39.465Z,105.05
2018-03-02T08:11:06.188Z,109.25
2018-03-02T08:13:32.961Z,101.32
2018-03-02T08:15:59.668Z,114.82
2018-03-02T08:18:26.392Z,96.37
2018-03-02T08:20:53.122Z,103.82
2018-03-02T08:23:19.828Z,108.18
2018-03-02T08:25:46.560Z,110.90
2018-03-02T08:28:18.232Z,100.35
2018-03-02T08:30:45.024Z,98.87
2018-03-02T08:33:11.784Z,109.05
2018-03-02T08:35:41.448Z,93.80
2018-03-02T08:38:12.162Z,111.55
2018-03-02T08:40:38.881Z,104.45
2018-03-02T08:43:10.742Z,108.85
2018-03-02T08:45:38.382Z,116.93
2018-03-02T08:48:05.158Z,116.53
2018-03-02T08:50:31.904Z,95.93
2018-03-02T08:52:58.614Z,90.47
2018-03-02T08:55:25.351Z,103.78
2018-03-02T08:57:52.070Z,106.93
2018-03-02T09:00:24.930Z,106.63
2018-03-02T09:02:51.660Z,110.75
2018-03-02T09:05:18.501Z,96.43
2018-03-02T09:07:45.237Z,104.45
2018-03-02T09:10:11.946Z,106.53
2018-03-02T09:12:38.834Z,102.87
2018-03-02T09:15:05.607Z,107.15
2018-03-02T09:17:32.353Z,100.22
2018-03-02T09:19:59.084Z,101.05
2018-03-02T09:22:25.815Z,102.10
2018-03-02T09:24:52.566Z,116.30
2018-03-02T09:27:19.289Z,108.72
2018-03-02T09:29:46.052Z,113.18
2018-03-02T09:32:12.802Z,120.65
2018-03-02T09:34:39.542Z,110.10
2018-03-02T09:37:06.276Z,100.97
2018-03-02T09:39:33.055Z,104.80
2018-03-02T09:41:59.796Z,100.80
2018-03-02T09:44:26.524Z,103.62
2018-03-02T09:46:53.248Z,106.32
2018-03-02T09:49:20.006Z,103.75
2018-03-02T09:51:46.725Z,110.05
2018-03-02T09:54:13.497Z,118.13
2018-03-02T09:56:41.719Z,97.68
2018-03-02T09:59:08.522Z,107.78
2018-03-02T10:01:35.258Z,100.03
2018-03-02T10:04:01.977Z,109.87
2018-03-02T10:06:28.740Z,112.95
2018-03-02T10:08:55.499Z,104.25
2018-03-02T10:11:22.214Z,116.35
2018-03-02T10:13:49.247Z,104.90
2018-03-02T10:16:16.046Z,105.25
2018-03-02T10:18:42.791Z,122.00
2018-03-02T10:21:09.574Z,112.90
2018-03-02T10:23:38.577Z,98.95
2018-03-02T10:26:05.358Z,115.62
2018-03-02T10:28:32.148Z,112.05
2018-03-02T10:30:59.001Z,111.05
2018-03-02T10:33:25.742Z,111.68
2018-03-02T10:35:52.501Z,115.82
2018-03-02T10:38:19.248Z,121.65
2018-03-02T10:40:45.980Z,128.85
2018-03-02T10:43:12.699Z,117.43
2018-03-02T10:45:39.463Z,109.10
2018-03-02T10:48:06.193Z,120.10
2018-03-02T10:50:32.963Z,129.60
2018-03-02T10:52:59.694Z,114.78
2018-03-02T10:55:26.421Z,124.38
2018-03-02T10:57:53.162Z,117.37
2018-03-02T11:00:25.564Z,126.12
2018-03-02T11:02:56.324Z,128.62
2018-03-02T11:05:23.083Z,123.20
2018-03-02T11:07:49.851Z,110.47
2018-03-02T11:10:16.573Z,129.23
2018-03-02T11:12:43.321Z,113.05
2018-03-02T11:15:10.096Z,124.38
2018-03-02T11:17:36.821Z,119.70
2018-03-02T11:20:03.624Z,117.03
2018-03-02T11:22:30.373Z,110.75
2018-03-02T11:24:57.139Z,125.40
2018-03-02T11:27:23.882Z,125.30
2018-03-02T11:29:53.534Z,130.30
2018-03-02T11:32:20.259Z,125.20
2018-03-02T11:34:47.017Z,126.72
2018-03-02T11:37:13.738Z,128.68
2018-03-02T11:39:40.487Z,129.23
2018-03-02T11:42:07.244Z,129.25
2018-03-02T11:44:33.971Z,123.80
2018-03-02T11:47:00.724Z,134.25
2018-03-02T11:49:27.462Z,133.23
2018-03-02T11:51:54.210Z,124.75
2018-03-02T11:54:20.948Z,131.02
2018-03-02T11:56:49.383Z,113.50
2018-03-02T11:59:17.147Z,125.35
2018-03-02T12:01:46.702Z,128.05
2018-03-02T12:04:13.695Z,124.32
2018-03-02T12:06:46.202Z,128.07
2018-03-02T12:09:12.931Z,121.75
2018-03-02T12:11:39.700Z,121.72
2018-03-02T12:14:06.456Z,137.68
2018-03-02T12:16:33.294Z,125.78
2018-03-02T12:19:03.402Z,123.07
2018-03-02T12:21:30.188Z,139.93
2018-03-02T12:23:58.081Z,122.35
2018-03-02T12:26:30.651Z,127.93
2018-03-02T12:29:02.159Z,127.25
2018-03-02T12:34:36.436Z,141.00
2018-03-02T12:42:58.294Z,131.20
2018-03-02T12:48:27.350Z,120.28
2018-03-02T12:50:54.107Z,121.22
2018-03-02T12:53:20.854Z,124.43
2018-03-02T12:55:47.595Z,131.15
2018-03-02T12:58:14.406Z,141.40
2018-03-02T13:00:41.228Z,131.70
2018-03-02T13:03:07.973Z,145.02
2018-03-02T13:05:34.693Z,130.63
2018-03-02T13:08:01.459Z,123.47
2018-03-02T13:10:28.867Z,128.85
2018-03-02T13:12:55.594Z,137.98
2018-03-02T13:15:22.353Z,135.10
2018-03-02T13:17:49.088Z,142.25
2018-03-02T13:20:15.825Z,120.85
2018-03-02T13:22:42.567Z,121.10
2018-03-02T13:25:09.271Z,138.05
2018-03-02T13:27:41.868Z,118.50
2018-03-02T13:30:08.610Z,125.32
2018-03-02T13:32:35.354Z,135.10
2018-03-02T13:35:09.822Z,130.15
2018-03-02T13:37:36.585Z,129.80
2018-03-02T13:40:09.239Z,136.12
2018-03-02T13:42:35.976Z,122.55
2018-03-02T13:45:02.743Z,139.62
2018-03-02T13:47:48.128Z,134.93
2018-03-02T13:50:14.890Z,146.52
2018-03-02T13:52:41.613Z,139.25
2018-03-02T13:55:08.393Z,144.32
2018-03-02T13:57:41.071Z,130.20
2018-03-02T14:00:07.803Z,135.93
2018-03-02T14:02:40.234Z,134.07
2018-03-02T14:05:06.979Z,134.87
2018-03-02T14:07:33.721Z,129.18
2018-03-02T14:10:00.453Z,132.93
2018-03-02T14:12:27.183Z,131.35
2018-03-02T14:14:53.894Z,133.87
2018-03-02T14:17:20.640Z,146.75
2018-03-02T14:19:47.375Z,134.57
2018-03-02T14:22:14.148Z,131.93
2018-03-02T14:24:40.867Z,126.95
2018-03-02T14:27:07.611Z,129.87
2018-03-02T14:29:34.358Z,124.03
2018-03-02T14:32:01.114Z,125.82
2018-03-02T14:34:27.878Z,124.15
2018-03-02T14:36:54.601Z,128.77
2018-03-02T14:39:21.354Z,128.77
2018-03-02T14:41:48.071Z,129.52
2018-03-02T14:44:14.797Z,133.93
2018-03-02T14:46:41.531Z,118.40
2018-03-02T14:49:08.247Z,131.30
2018-03-02T14:51:35.033Z,118.40
2018-03-02T14:54:01.754Z,116.55
2018-03-02T14:56:28.513Z,124.70
2018-03-02T14:58:55.249Z,120.03
2018-03-02T15:01:21.999Z,124.43
2018-03-02T15:03:48.743Z,128.38
2018-03-02T15:06:15.500Z,125.80
2018-03-02T15:08:42.221Z,135.85
2018-03-02T15:11:09.009Z,138.37
2018-03-02T15:13:35.729Z,160.75
2018-03-02T15:16:02.491Z,140.95
2018-03-02T15:18:29.246Z,147.18
2018-03-02T15:20:55.987Z,129.35
2018-03-02T15:23:22.802Z,130.60
2018-03-02T15:25:49.534Z,119.22
2018-03-02T15:28:16.283Z,149.57
2018-03-02T15:30:42.988Z,129.32
2018-03-02T15:33:09.753Z,144.27
2018-03-02T15:35:36.502Z,118.72
2018-03-02T15:38:03.270Z,130.00
2018-03-02T15:40:30.001Z,136.48
2018-03-02T15:42:56.709Z,132.57
2018-03-02T15:45:23.450Z,134.98
2018-03-02T15:47:50.198Z,135.40
2018-03-02T15:50:16.956Z,123.38
2018-03-02T15:52:43.682Z,131.00
2018-03-02T15:55:10.472Z,126.18
2018-03-02T15:57:37.241Z,126.60
2018-03-02T16:00:03.989Z,121.60
2018-03-02T16:02:30.753Z,121.50
2018-03-02T16:04:57.521Z,137.35
2018-03-02T16:07:24.262Z,128.48
2018-03-02T16:09:50.973Z,124.95
2018-03-02T16:12:17.743Z,121.75
2018-03-02T16:14:44.476Z,125.43
2018-03-02T16:17:11.228Z,113.65
2018-03-02T16:19:38.000Z,137.05
2018-03-02T16:22:04.717Z,124.55
2018-03-02T16:24:31.448Z,130.80
2018-03-02T16:26:58.185Z,128.60
2018-03-02T16:29:24.893Z,139.85
2018-03-02T16:31:51.628Z,150.68
2018-03-02T16:34:18.369Z,130.95
2018-03-02T16:36:45.124Z,137.00
2018-03-02T16:39:11.854Z,139.43
2018-03-02T16:41:38.578Z,125.68
2018-03-02T16:44:05.359Z,135.95
2018-03-02T16:46:32.090Z,126.00
2018-03-02T16:48:58.888Z,128.35
2018-03-02T16:51:25.626Z,127.35
2018-03-02T16:53:52.342Z,137.52
2018-03-02T16:56:19.141Z,146.57
2018-03-02T16:58:45.860Z,142.52
2018-03-02T17:01:12.622Z,137.73
2018-03-02T17:03:39.363Z,139.82
2018-03-02T17:06:06.074Z,143.75
2018-03-02T17:08:32.859Z,136.25
2018-03-02T17:10:59.605Z,138.62
2018-03-02T17:13:26.338Z,132.75
2018-03-02T17:15:53.085Z,142.70
2018-03-02T17:18:19.851Z,142.23
2018-03-02T17:20:46.595Z,140.00
2018-03-02T17:23:13.345Z,136.93
2018-03-02T17:25:40.119Z,142.10
2018-03-02T17:28:06.837Z,159.52
2018-03-02T17:30:33.590Z,132.60
2018-03-02T17:33:00.317Z,129.70
2018-03-02T17:35:27.041Z,139.05
2018-03-02T17:37:53.804Z,137.25
2018-03-02T17:40:20.521Z,137.80
2018-03-02T17:42:47.283Z,130.55
2018-03-02T17:45:14.048Z,160.10
2018-03-02T17:47:40.807Z,140.20
2018-03-02T17:50:07.522Z,145.62
2018-03-02T17:52:34.283Z,142.57
2018-03-02T17:55:01.055Z,155.60
2018-03-02T17:57:27.774Z,144.57
2018-03-02T17:59:54.557Z,143.60
2018-03-02T18:02:21.273Z,148.70
2018-03-02T18:04:48.004Z,151.60
2018-03-02T18:07:14.747Z,150.93
2018-03-02T18:09:41.462Z,142.57
2018-03-02T18:12:08.223Z,153.55
2018-03-02T18:14:34.962Z,168.57
2018-03-02T18:17:01.707Z,148.35
2018-03-02T18:19:28.466Z,139.57
2018-03-02T18:21:55.206Z,148.45
2018-03-02T18:24:21.948Z,151.70
2018-03-02T18:26:48.693Z,136.10
2018-03-02T18:29:15.439Z,158.50
2018-03-02T18:31:42.182Z,145.23
2018-03-02T18:34:08.924Z,145.32
2018-03-02T18:36:35.682Z,140.02
2018-03-02T18:39:02.407Z,156.60
2018-03-02T18:41:29.176Z,146.05
2018-03-02T18:43:55.938Z,145.75
2018-03-02T18:46:22.680Z,145.77
2018-03-02T18:48:49.450Z,145.77
2018-03-02T18:51:16.200Z,136.27
2018-03-02T18:53:42.930Z,141.52
2018-03-02T18:56:10.071Z,140.80
2018-03-02T18:58:36.846Z,152.55
2018-03-02T19:01:03.582Z,146.27
2018-03-02T19:03:30.329Z,139.48
2018-03-02T19:05:57.166Z,139.77
2018-03-02T19:08:23.919Z,143.45
2018-03-02T19:10:50.696Z,146.32
2018-03-02T19:13:17.447Z,138.12
2018-03-02T19:15:44.445Z,155.98
2018-03-02T19:18:11.200Z,148.50
2018-03-02T19:20:38.069Z,138.73
2018-03-02T19:23:04.927Z,135.00
2018-03-02T19:25:31.733Z,148.45
2018-03-02T19:27:58.546Z,143.32
2018-03-02T19:30:25.317Z,145.50
2018-03-02T19:32:52.195Z,140.57
2018-03-02T19:35:19.071Z,138.15
2018-03-02T19:37:45.879Z,139.68
2018-03-02T19:40:12.788Z,136.15
2018-03-02T19:42:39.830Z,138.23
2018-03-02T19:45:06.769Z,140.73
2018-03-02T19:47:33.520Z,141.90
2018-03-02T19:50:00.245Z,142.45
2018-03-02T19:52:27.252Z,154.87
2018-03-02T19:54:54.383Z,168.20
2018-03-02T19:57:21.302Z,134.15
2018-03-02T19:59:48.065Z,147.13
2018-03-02T20:02:14.798Z,156.27
2018-03-02T20:04:41.561Z,142.80
2018-03-02T20:07:08.297Z,142.77
2018-03-02T20:09:35.310Z,153.12
2018-03-02T20:12:02.398Z,152.82
2018-03-02T20:14:29.442Z,152.38
2018-03-02T20:16:56.646Z,143.40
2018-03-02T20:19:23.941Z,148.25
2018-03-02T20:21:50.746Z,143.62
2018-03-02T20:24:17.763Z,153.45
2018-03-02T20:26:44.553Z,148.50
2018-03-02T20:29:11.322Z,145.25
2018-03-02T20:31:38.084Z,141.25
2018-03-02T20:34:04.838Z,156.40
2018-03-02T20:36:31.833Z,138.00
2018-03-02T20:38:58.778Z,148.90
2018-03-02T20:41:25.549Z,167.55
2018-03-02T20:43:52.287Z,159.77
2018-03-02T20:46:19.051Z,147.48
2018-03-02T20:48:45.781Z,147.95
2018-03-02T20:51:12.542Z,145.57
2018-03-02T20:53:40.582Z,151.45
2018-03-02T20:56:07.321Z,146.85
2018-03-02T20:58:34.101Z,144.00
2018-03-02T21:01:00.873Z,141.75
2018-03-02T21:03:27.641Z,161.30
2018-03-02T21:05:54.368Z,163.02
2018-03-02T21:08:21.097Z,158.73
2018-03-02T21:10:47.844Z,160.30
2018-03-02T21:13:14.574Z,147.93
2018-03-02T21:15:41.374Z,150.12
2018-03-02T21:18:08.126Z,157.15
2018-03-02T21:20:34.884Z,150.40
2018-03-02T21:23:01.694Z,159.60
2018-03-02T21:25:28.383Z,164.77
2018-03-02T21:27:55.167Z,150.15
2018-03-02T21:30:21.906Z,152.02
2018-03-02T21:32:48.757Z,146.50
2018-03-02T21:35:15.551Z,128.90
2018-03-02T21:37:42.349Z,133.55
2018-03-02T21:40:09.176Z,146.60
2018-03-02T21:42:35.924Z,129.85
2018-03-02T21:45:02.662Z,123.70
2018-03-02T21:47:29.436Z,116.05
2018-03-02T21:49:56.793Z,119.90
2018-03-02T21:52:23.556Z,136.55
2018-03-02T21:54:50.323Z,127.82
2018-03-02T21:57:17.039Z,123.87
2018-03-02T21:59:43.775Z,125.53
2018-03-02T22:02:10.547Z,122.55
2018-03-02T22:04:37.266Z,120.13
2018-03-02T22:07:04.008Z,125.28
2018-03-02T22:09:30.762Z,119.90
2018-03-02T22:11:57.485Z,117.90
2018-03-02T22:14:24.240Z,104.20
2018-03-02T22:16:51.064Z,127.18
2018-03-02T22:19:17.828Z,127.85
2018-03-02T22:21:44.588Z,124.68
2018-03-02T22:24:11.340Z,130.60
2018-03-02T22:26:38.088Z,111.68
2018-03-02T22:29:04.808Z,112.93
2018-03-02T22:31:31.537Z,117.60
2018-03-02T22:33:58.260Z,131.57
2018-03-02T22:36:24.993Z,126.18
2018-03-02T22:38:51.709Z,120.30
2018-03-02T22:41:18.469Z,116.18
2018-03-02T22:43:45.204Z,112.95
2018-03-02T22:46:11.946Z,101.28
2018-03-02T22:48:38.699Z,118.93
2018-03-02T22:51:05.428Z,127.18
2018-03-02T22:53:32.174Z,119.45
2018-03-02T22:55:58.923Z,116.03
2018-03-02T22:58:25.651Z,124.40
2018-03-02T23:00:52.398Z,131.40
2018-03-02T23:03:19.107Z,136.62
2018-03-02T23:05:45.876Z,129.70
2018-03-02T23:08:12.589Z,120.35
2018-03-02T23:10:39.328Z,126.70
2018-03-02T23:13:06.101Z,115.57
2018-03-02T23:15:32.825Z,126.18
2018-03-02T23:17:59.563Z,115.37
2018-03-02T23:20:26.286Z,125.30
2018-03-02T23:22:53.039Z,120.75
2018-03-02T23:25:19.791Z,115.00
2018-03-02T23:27:46.526Z,112.53
2018-03-02T23:30:13.256Z,110.47
2018-03-02T23:32:39.971Z,109.32
2018-03-02T23:35:06.738Z,133.25
2018-03-02T23:37:33.492Z,104.38
2018-03-02T23:40:00.195Z,94.53
2018-03-02T23:42:26.922Z,115.43
2018-03-02T23:44:53.629Z,98.20
2018-03-02T23:47:20.403Z,97.72
2018-03-02T23:49:47.146Z,109.60
2018-03-02T23:52:13.861Z,105.05
2018-03-02T23:54:40.623Z,107.10
2018-03-02T23:57:07.334Z,132.70
2018-03-02T23:59:34.067Z,124.03
